Time;durP1;ratioP1;P1;durP2;ratioP2;P2;SDS_P1;SDS_P2;PMS_P1;PMS_P2;Temp;Humidity;BMP_temperature;BMP_pressure;BME280_temperature;BME280_humidity;BME280_pressure;Samples;Min_cycle;Max_cycle;Signal;HPM_P1;HPM_P2
2024/01/07 00:02:11;;;;;;;30.17;12.93;;;-3.40;99.90;;;;;;4984582;28;20309;-71
2024/01/07 00:04:41;;;;;;;25.07;12.43;;;-3.40;99.90;;;;;;4982588;28;20739;-72
2024/01/07 00:07:09;;;;;;;28.37;13.47;;;-3.40;99.90;;;;;;4982151;28;20229;-73
2024/01/07 00:09:38;;;;;;;31.27;12.87;;;-3.50;99.90;;;;;;4964131;28;20757;-72
2024/01/07 00:12:07;;;;;;;25.63;12.87;;;-3.50;99.90;;;;;;4965735;28;20248;-72
2024/01/07 00:14:36;;;;;;;25.50;11.97;;;-3.50;99.90;;;;;;4964977;28;20673;-71
2024/01/07 00:17:05;;;;;;;29.33;12.30;;;-3.40;99.90;;;;;;4975540;28;20678;-71
2024/01/07 00:19:35;;;;;;;31.37;13.10;;;-3.40;99.90;;;;;;4976996;28;20904;-71
2024/01/07 00:22:04;;;;;;;27.00;13.00;;;-3.50;99.90;;;;;;4979375;28;20319;-72
2024/01/07 00:24:33;;;;;;;27.83;12.83;;;-3.60;99.90;;;;;;4964851;28;20236;-69
2024/01/07 00:27:02;;;;;;;29.73;12.67;;;-3.40;99.90;;;;;;4977410;28;20999;-69
2024/01/07 00:29:30;;;;;;;27.67;13.20;;;-3.50;99.90;;;;;;4964930;28;20234;-71
2024/01/07 00:31:59;;;;;;;27.97;13.93;;;-3.60;99.90;;;;;;4979276;28;20231;-71
2024/01/07 00:34:28;;;;;;;29.83;13.47;;;-3.70;99.90;;;;;;4964427;28;20253;-71
2024/01/07 00:36:58;;;;;;;28.07;13.50;;;-3.40;99.90;;;;;;4965484;28;20762;-71
2024/01/07 00:39:26;;;;;;;30.40;13.37;;;-3.20;99.90;;;;;;4983207;28;20275;-71
2024/01/07 00:41:55;;;;;;;27.43;12.97;;;-3.30;99.90;;;;;;4955549;28;20786;-71
2024/01/07 00:44:24;;;;;;;29.70;13.53;;;-3.60;99.90;;;;;;4981572;28;20250;-72
2024/01/07 00:46:52;;;;;;;27.50;13.47;;;-3.50;99.90;;;;;;4977289;28;20742;-72
2024/01/07 00:49:21;;;;;;;28.80;13.93;;;-3.50;99.90;;;;;;4979110;28;20216;-71
2024/01/07 00:51:49;;;;;;;28.53;12.93;;;-3.50;99.90;;;;;;4974954;28;20237;-72
2024/01/07 00:54:21;;;;;;;29.93;14.10;;;-3.60;99.90;;;;;;4965793;28;20322;-72
2024/01/07 00:56:51;;;;;;;26.20;12.43;;;-3.50;99.90;;;;;;4980112;28;20233;-73
2024/01/07 00:59:19;;;;;;;28.03;12.50;;;-3.70;99.90;;;;;;4977492;28;20223;-73
2024/01/07 01:01:48;;;;;;;26.23;12.87;;;-3.60;99.90;;;;;;4980520;28;20543;-72
2024/01/07 01:04:16;;;;;;;27.63;13.33;;;-3.60;99.90;;;;;;4978607;28;20605;-72
2024/01/07 01:06:45;;;;;;;27.00;13.27;;;-3.50;99.90;;;;;;4959736;28;20235;-70
2024/01/07 01:09:14;;;;;;;30.53;13.70;;;-3.40;99.90;;;;;;4962530;28;20230;-72
2024/01/07 01:11:44;;;;;;;33.60;13.93;;;-3.30;99.90;;;;;;4978063;28;20326;-71
2024/01/07 01:14:16;;;;;;;32.63;14.90;;;-3.30;99.90;;;;;;4977363;28;20320;-72
2024/01/07 01:16:44;;;;;;;31.60;13.70;;;-3.40;99.90;;;;;;4961751;28;20339;-72
2024/01/07 01:19:13;;;;;;;26.53;13.27;;;-3.50;99.90;;;;;;4978461;28;20667;-73
2024/01/07 01:21:42;;;;;;;31.73;14.03;;;-3.40;99.90;;;;;;4964895;28;20235;-72
2024/01/07 01:24:12;;;;;;;28.83;13.57;;;-3.50;99.90;;;;;;4959669;28;20233;-69
2024/01/07 01:26:41;;;;;;;26.47;13.17;;;-3.60;99.90;;;;;;4965339;28;20743;-70
2024/01/07 01:29:11;;;;;;;29.77;13.23;;;-3.40;99.90;;;;;;4974816;28;21040;-71
2024/01/07 01:31:40;;;;;;;28.37;12.87;;;-3.30;99.90;;;;;;4980901;28;20227;-71
2024/01/07 01:34:17;;;;;;;24.93;11.50;;;-3.40;99.90;;;;;;4966901;28;20223;-70
2024/01/07 01:36:46;;;;;;;25.07;11.17;;;-3.50;99.90;;;;;;4984778;28;20257;-72
2024/01/07 01:39:15;;;;;;;27.23;11.90;;;-3.50;99.90;;;;;;4965971;28;20228;-69
2024/01/07 01:41:43;;;;;;;25.20;12.27;;;-3.30;99.90;;;;;;4975404;28;21034;-70
2024/01/07 01:44:14;;;;;;;24.33;10.97;;;-3.40;99.90;;;;;;4972881;28;20281;-73
2024/01/07 01:46:42;;;;;;;23.97;11.03;;;-3.50;99.90;;;;;;4983050;28;20232;-73
2024/01/07 01:49:14;;;;;;;22.53;11.23;;;-3.60;99.90;;;;;;4975652;28;20322;-73
2024/01/07 01:51:43;;;;;;;26.50;11.53;;;-3.40;99.90;;;;;;4967086;28;20239;-70
2024/01/07 01:54:13;;;;;;;24.43;11.50;;;-3.40;99.90;;;;;;4981797;28;20235;-72
2024/01/07 01:56:41;;;;;;;24.80;11.67;;;-3.50;99.90;;;;;;4979254;28;20248;-71
2024/01/07 01:59:10;;;;;;;23.47;11.57;;;-3.50;99.90;;;;;;4961626;28;20218;-71
2024/01/07 02:01:41;;;;;;;26.53;12.60;;;-3.40;99.90;;;;;;4966248;28;20261;-71
2024/01/07 02:04:11;;;;;;;28.30;13.03;;;-3.40;99.90;;;;;;4966299;28;20606;-70
2024/01/07 02:06:40;;;;;;;25.13;11.77;;;-3.10;99.90;;;;;;4984522;28;20232;-72
2024/01/07 02:09:08;;;;;;;23.67;11.17;;;-3.40;99.90;;;;;;4985772;28;20232;-71
2024/01/07 02:11:37;;;;;;;21.63;11.13;;;-3.30;99.90;;;;;;4983511;28;20736;-71
2024/01/07 02:14:06;;;;;;;23.43;11.80;;;-3.30;99.90;;;;;;4969296;28;20229;-71
2024/01/07 02:16:34;;;;;;;23.17;11.20;;;-3.20;99.90;;;;;;4966069;28;20651;-70
2024/01/07 02:19:06;;;;;;;22.37;11.20;;;-3.30;99.90;;;;;;4984634;28;20234;-70
2024/01/07 02:21:36;;;;;;;25.50;12.00;;;-3.40;99.90;;;;;;4983636;28;20714;-69
2024/01/07 02:24:07;;;;;;;23.90;12.10;;;-3.20;99.90;;;;;;4970461;28;20438;-71
2024/01/07 02:26:36;;;;;;;23.03;11.33;;;-3.20;99.90;;;;;;4984867;28;20310;-72
2024/01/07 02:29:05;;;;;;;21.00;10.93;;;-3.20;99.90;;;;;;4983531;28;20239;-71
2024/01/07 02:31:33;;;;;;;18.67;9.77;;;-3.20;99.90;;;;;;4987156;28;20227;-68
2024/01/07 02:34:02;;;;;;;22.17;10.07;;;-3.40;99.90;;;;;;4989516;28;20243;-64
2024/01/07 02:36:30;;;;;;;14.20;8.50;;;-3.50;99.90;;;;;;4967639;28;20252;-70
2024/01/07 02:38:59;;;;;;;18.73;8.53;;;-3.50;99.90;;;;;;4987748;28;20269;-70
2024/01/07 02:41:29;;;;;;;14.60;8.20;;;-3.70;99.90;;;;;;4968508;28;20229;-71
2024/01/07 02:43:57;;;;;;;18.30;8.47;;;-3.70;99.90;;;;;;4987983;28;20259;-70
2024/01/07 02:46:26;;;;;;;18.13;9.00;;;-3.60;99.90;;;;;;4982744;28;20224;-70
2024/01/07 02:48:54;;;;;;;18.93;8.43;;;-3.70;99.90;;;;;;4988065;28;20230;-71
2024/01/07 02:51:23;;;;;;;18.57;8.80;;;-3.60;99.90;;;;;;4985495;28;20290;-70
2024/01/07 02:53:52;;;;;;;15.43;8.37;;;-3.50;99.90;;;;;;4976190;28;20215;-70
2024/01/07 02:56:20;;;;;;;16.73;8.70;;;-3.60;99.90;;;;;;4984445;28;20231;-70
2024/01/07 02:58:50;;;;;;;18.83;9.13;;;-3.70;99.90;;;;;;4975304;28;20229;-71
2024/01/07 03:01:22;;;;;;;17.47;9.13;;;-3.50;99.90;;;;;;4983470;28;20232;-71
2024/01/07 03:03:51;;;;;;;19.47;9.60;;;-3.70;99.90;;;;;;4987686;28;20225;-71
2024/01/07 03:06:20;;;;;;;19.73;9.23;;;-3.90;99.90;;;;;;4979531;28;20228;-73
2024/01/07 03:08:49;;;;;;;19.97;9.70;;;-4.10;99.90;;;;;;4986536;28;20227;-66
2024/01/07 03:11:18;;;;;;;17.43;8.83;;;-4.00;99.90;;;;;;4988494;28;20239;-69
2024/01/07 03:13:46;;;;;;;18.87;9.70;;;-4.00;99.90;;;;;;4983112;28;20232;-71
2024/01/07 03:16:22;;;;;;;18.80;9.70;;;-4.10;99.90;;;;;;4981819;28;20521;-71
2024/01/07 03:18:50;;;;;;;18.23;9.43;;;-4.00;99.90;;;;;;4982018;28;20256;-70
2024/01/07 03:21:20;;;;;;;20.27;9.03;;;-4.00;99.90;;;;;;4966454;28;20223;-70
2024/01/07 03:23:49;;;;;;;21.80;9.10;;;-3.90;99.90;;;;;;4964949;28;20333;-71
2024/01/07 03:26:19;;;;;;;23.20;10.00;;;-4.20;99.90;;;;;;4979388;28;20313;-70
2024/01/07 03:28:48;;;;;;;19.33;10.43;;;-4.10;99.90;;;;;;4973978;28;20885;-70
2024/01/07 03:31:17;;;;;;;21.70;9.87;;;-4.20;99.90;;;;;;4978951;28;20406;-70
2024/01/07 03:33:47;;;;;;;19.63;9.93;;;-4.30;99.90;;;;;;4980062;28;20727;-70
2024/01/07 03:36:16;;;;;;;19.40;10.37;;;-4.40;99.90;;;;;;4981231;28;20218;-70
2024/01/07 03:38:44;;;;;;;18.60;9.97;;;-4.20;99.90;;;;;;4980096;28;20282;-70
2024/01/07 03:41:17;;;;;;;19.17;9.57;;;-4.30;99.90;;;;;;4980166;28;20223;-70
2024/01/07 03:43:47;;;;;;;21.63;9.90;;;-4.40;99.90;;;;;;4960749;28;20241;-73
2024/01/07 03:46:16;;;;;;;21.57;10.57;;;-4.50;99.90;;;;;;4968423;28;20219;-70
2024/01/07 03:48:50;;;;;;;18.07;9.60;;;-4.50;99.90;;;;;;4981307;28;20921;-71
2024/01/07 03:51:19;;;;;;;18.20;10.23;;;-4.50;99.90;;;;;;4977703;28;20801;-72
2024/01/07 03:53:47;;;;;;;20.30;10.50;;;-4.30;99.90;;;;;;4979409;28;20240;-71
2024/01/07 03:56:16;;;;;;;18.93;8.80;;;-4.10;99.90;;;;;;4980537;28;20214;-70
2024/01/07 03:58:44;;;;;;;17.00;9.70;;;-4.20;99.90;;;;;;4977295;28;20228;-71
2024/01/07 04:01:17;;;;;;;21.57;9.73;;;-4.30;99.90;;;;;;4979670;28;20316;-71
2024/01/07 04:03:48;;;;;;;16.37;9.63;;;-4.10;99.90;;;;;;4982423;28;20245;-72
2024/01/07 04:06:17;;;;;;;19.93;9.67;;;-4.60;99.90;;;;;;4983327;28;20725;-71
2024/01/07 04:08:45;;;;;;;20.73;9.60;;;-4.70;99.90;;;;;;4981452;28;20223;-71
2024/01/07 04:11:13;;;;;;;17.43;9.20;;;-4.60;99.90;;;;;;4972941;28;20231;-71
2024/01/07 04:13:42;;;;;;;21.70;10.07;;;-4.60;99.90;;;;;;4981712;28;20308;-71
2024/01/07 04:16:17;;;;;;;20.40;9.93;;;-4.50;99.90;;;;;;4964589;28;20239;-71
2024/01/07 04:18:47;;;;;;;19.63;8.90;;;-4.60;99.90;;;;;;4981116;28;20234;-71
2024/01/07 04:21:21;;;;;;;18.33;9.83;;;-4.60;99.90;;;;;;4981449;28;20701;-72
2024/01/07 04:23:50;;;;;;;17.70;9.37;;;-4.50;99.90;;;;;;4964820;28;20333;-71
2024/01/07 04:26:18;;;;;;;18.90;9.03;;;-4.60;99.90;;;;;;4961322;28;20231;-72
2024/01/07 04:28:47;;;;;;;19.60;10.63;;;-4.70;99.90;;;;;;4963005;28;20227;-73
2024/01/07 04:31:15;;;;;;;18.47;9.00;;;-4.50;99.90;;;;;;4957368;28;20234;-71
2024/01/07 04:33:44;;;;;;;19.00;9.67;;;-4.60;99.90;;;;;;4982026;28;20233;-71
2024/01/07 04:36:14;;;;;;;21.97;9.93;;;-4.60;99.90;;;;;;4982510;28;20289;-72
2024/01/07 04:38:43;;;;;;;19.40;9.73;;;-4.40;99.90;;;;;;4980018;28;20237;-71
2024/01/07 04:41:11;;;;;;;17.57;9.53;;;-4.70;99.90;;;;;;4973721;28;20263;-70
2024/01/07 04:43:40;;;;;;;21.40;9.57;;;-4.70;99.90;;;;;;4983011;28;20233;-71
2024/01/07 04:46:10;;;;;;;17.47;9.23;;;-4.60;99.90;;;;;;4979791;28;20227;-71
2024/01/07 04:48:39;;;;;;;15.73;9.30;;;-4.50;99.90;;;;;;4975166;28;20220;-72
2024/01/07 04:51:08;;;;;;;17.50;9.50;;;-4.40;99.90;;;;;;4977843;28;20305;-71
2024/01/07 04:53:38;;;;;;;17.97;9.70;;;-4.20;99.90;;;;;;4977947;28;20566;-71
2024/01/07 04:56:07;;;;;;;16.60;9.43;;;-4.30;99.90;;;;;;4961855;28;20239;-71
2024/01/07 04:58:36;;;;;;;18.13;8.70;;;-4.40;99.90;;;;;;4980870;28;20647;-70
2024/01/07 05:01:04;;;;;;;22.10;9.87;;;-4.40;99.90;;;;;;4979118;28;20349;-71
2024/01/07 05:03:33;;;;;;;17.40;8.60;;;-4.40;99.90;;;;;;4964990;28;20620;-71
2024/01/07 05:06:03;;;;;;;21.57;9.77;;;-4.40;99.90;;;;;;4968578;28;20251;-73
2024/01/07 05:08:31;;;;;;;16.13;9.53;;;-4.60;99.90;;;;;;4964785;28;20231;-73
2024/01/07 05:11:01;;;;;;;17.87;9.80;;;-4.70;99.90;;;;;;4965314;28;20319;-73
2024/01/07 05:13:29;;;;;;;19.33;10.13;;;-4.60;99.90;;;;;;4974227;28;20571;-72
2024/01/07 05:15:58;;;;;;;21.27;9.77;;;-4.70;99.90;;;;;;4986228;28;20235;-73
2024/01/07 05:18:26;;;;;;;17.47;8.67;;;-4.60;99.90;;;;;;4961621;28;20721;-72
2024/01/07 05:20:55;;;;;;;21.03;9.83;;;-4.60;99.90;;;;;;4981736;28;20319;-74
2024/01/07 05:23:24;;;;;;;20.83;10.13;;;-4.60;99.90;;;;;;4983889;28;20223;-70
2024/01/07 05:25:52;;;;;;;15.63;9.00;;;-4.70;99.90;;;;;;4983441;28;20262;-71
2024/01/07 05:28:22;;;;;;;19.27;9.30;;;-4.70;99.90;;;;;;4965988;28;20580;-70
2024/01/07 05:30:51;;;;;;;16.03;9.17;;;-4.80;99.90;;;;;;4985533;28;20239;-70
2024/01/07 05:33:19;;;;;;;18.20;9.40;;;-4.80;99.90;;;;;;4984648;28;20361;-71
2024/01/07 05:35:48;;;;;;;23.53;9.83;;;-4.80;99.90;;;;;;4986001;28;20230;-70
2024/01/07 05:38:17;;;;;;;16.87;8.90;;;-4.80;99.90;;;;;;4965035;28;20273;-71
2024/01/07 05:40:45;;;;;;;18.83;9.30;;;-4.80;99.90;;;;;;4967246;28;20241;-71
2024/01/07 05:43:13;;;;;;;17.17;8.77;;;-4.70;99.90;;;;;;4988068;28;20356;-71
2024/01/07 05:45:43;;;;;;;17.77;9.40;;;-4.70;99.90;;;;;;4964272;28;20215;-72
2024/01/07 05:48:12;;;;;;;15.87;8.90;;;-4.60;99.90;;;;;;4984928;28;20237;-73
2024/01/07 05:50:41;;;;;;;16.23;8.37;;;-4.70;99.90;;;;;;4982518;28;20863;-73
2024/01/07 05:53:09;;;;;;;17.20;8.93;;;-4.70;99.90;;;;;;4980715;28;20750;-71
2024/01/07 05:55:38;;;;;;;18.67;9.10;;;-4.90;99.90;;;;;;4973450;28;20382;-73
2024/01/07 05:58:06;;;;;;;16.70;8.33;;;-5.00;99.90;;;;;;4985084;28;20223;-73
2024/01/07 06:00:35;;;;;;;16.27;8.23;;;-5.00;99.90;;;;;;4967307;28;20253;-71
2024/01/07 06:03:06;;;;;;;19.17;9.67;;;-4.80;99.90;;;;;;4980651;28;20238;-72
2024/01/07 06:05:35;;;;;;;17.03;9.30;;;-4.70;99.90;;;;;;4983085;28;20304;-71
2024/01/07 06:08:04;;;;;;;17.90;9.80;;;-4.60;99.90;;;;;;4964554;28;20262;-70
2024/01/07 06:10:33;;;;;;;19.30;9.30;;;-4.80;99.90;;;;;;4982178;28;20223;-71
2024/01/07 06:13:02;;;;;;;21.10;11.10;;;-4.60;99.90;;;;;;4982345;28;20230;-70
2024/01/07 06:15:31;;;;;;;17.80;10.40;;;-4.90;99.90;;;;;;4981404;28;20219;-70
2024/01/07 06:18:00;;;;;;;21.17;10.40;;;-4.90;99.90;;;;;;4987992;28;20235;-69
2024/01/07 06:20:30;;;;;;;21.63;9.80;;;-5.00;99.90;;;;;;4983401;28;20733;-68
2024/01/07 06:22:59;;;;;;;18.77;9.90;;;-4.90;99.90;;;;;;4980254;28;21461;-71
2024/01/07 06:25:27;;;;;;;21.20;9.73;;;-4.90;99.90;;;;;;4984511;28;20241;-70
2024/01/07 06:27:55;;;;;;;17.00;7.90;;;-4.90;99.90;;;;;;4989390;28;20227;-70
2024/01/07 06:30:24;;;;;;;21.47;9.90;;;-5.10;99.90;;;;;;4967941;28;20326;-70
2024/01/07 06:32:54;;;;;;;19.63;10.13;;;-5.10;99.90;;;;;;4970786;28;20249;-71
2024/01/07 06:35:22;;;;;;;20.00;9.37;;;-4.80;99.90;;;;;;4971956;28;20340;-71
2024/01/07 06:37:52;;;;;;;17.63;9.60;;;-4.90;99.90;;;;;;4981076;28;20227;-70
2024/01/07 06:40:21;;;;;;;17.87;9.40;;;-5.00;99.90;;;;;;4987647;28;20313;-73
2024/01/07 06:42:49;;;;;;;15.80;8.17;;;-5.00;99.90;;;;;;4981827;28;20234;-68
2024/01/07 06:45:18;;;;;;;19.50;8.97;;;-5.20;99.90;;;;;;4980535;28;20230;-72
2024/01/07 06:47:46;;;;;;;16.17;8.47;;;-5.20;99.90;;;;;;4984825;28;20261;-72
2024/01/07 06:50:15;;;;;;;21.63;10.87;;;-5.30;99.90;;;;;;4971746;28;20277;-71
2024/01/07 06:52:44;;;;;;;18.93;10.17;;;-5.30;99.90;;;;;;4974147;28;20278;-71
2024/01/07 06:55:14;;;;;;;20.10;9.77;;;-5.10;99.90;;;;;;4967102;28;21334;-71
2024/01/07 06:57:42;;;;;;;17.30;9.23;;;-4.90;99.90;;;;;;4987179;28;20276;-69
2024/01/07 07:00:12;;;;;;;17.23;9.60;;;-5.00;99.90;;;;;;4988939;28;20293;-70
2024/01/07 07:02:40;;;;;;;19.20;9.67;;;-5.10;99.90;;;;;;4984587;28;20218;-70
2024/01/07 07:05:09;;;;;;;20.60;9.90;;;-5.00;99.90;;;;;;4990937;28;20290;-69
2024/01/07 07:07:38;;;;;;;23.87;11.00;;;-4.90;99.90;;;;;;4980279;28;20224;-71
2024/01/07 07:10:07;;;;;;;20.30;9.80;;;-4.80;99.90;;;;;;4973993;28;20230;-69
2024/01/07 07:12:37;;;;;;;19.50;10.07;;;-4.80;99.90;;;;;;4975220;28;20226;-71
2024/01/07 07:15:08;;;;;;;20.17;11.00;;;-4.90;99.90;;;;;;4984236;28;20228;-71
2024/01/07 07:17:39;;;;;;;22.90;10.53;;;-4.80;99.90;;;;;;4957847;28;20241;-73
2024/01/07 07:20:09;;;;;;;19.60;10.87;;;-4.70;99.90;;;;;;4983207;28;20222;-71
2024/01/07 07:22:37;;;;;;;21.23;11.27;;;-4.80;99.90;;;;;;4965184;28;20310;-69
2024/01/07 07:25:07;;;;;;;19.50;10.57;;;-4.80;99.90;;;;;;4977706;28;20330;-69
2024/01/07 07:27:37;;;;;;;20.67;10.03;;;-4.80;99.90;;;;;;4973372;28;20568;-70
2024/01/07 07:30:07;;;;;;;19.70;9.90;;;-4.90;99.90;;;;;;4963673;28;20234;-71
2024/01/07 07:32:36;;;;;;;19.73;10.10;;;-4.90;99.90;;;;;;4983351;28;20219;-72
2024/01/07 07:35:05;;;;;;;15.83;9.00;;;-4.70;99.90;;;;;;4975910;28;20227;-69
2024/01/07 07:37:34;;;;;;;17.37;8.87;;;-4.60;99.90;;;;;;4981713;28;20241;-72
2024/01/07 07:40:03;;;;;;;18.93;9.40;;;-4.60;99.90;;;;;;4963963;28;20229;-72
2024/01/07 07:42:32;;;;;;;20.27;9.23;;;-4.50;99.90;;;;;;4981820;28;20656;-70
2024/01/07 07:45:02;;;;;;;16.87;8.57;;;-4.60;99.90;;;;;;4961327;28;20706;-72
2024/01/07 07:47:31;;;;;;;15.37;8.77;;;-4.60;99.90;;;;;;4976024;28;20711;-70
2024/01/07 07:50:00;;;;;;;18.73;9.43;;;-4.80;99.90;;;;;;4978728;28;20224;-73
2024/01/07 07:52:29;;;;;;;17.47;9.13;;;-4.60;99.90;;;;;;4979844;28;20766;-70
2024/01/07 07:54:58;;;;;;;15.73;8.97;;;-4.50;99.90;;;;;;4978373;28;20804;-72
2024/01/07 07:57:26;;;;;;;14.93;8.47;;;-4.70;99.90;;;;;;4978332;28;20229;-70
2024/01/07 07:59:55;;;;;;;20.73;9.33;;;-4.50;99.90;;;;;;4979292;28;20226;-70
2024/01/07 08:02:25;;;;;;;15.83;9.33;;;-4.50;99.90;;;;;;4979377;28;20227;-70
2024/01/07 08:04:54;;;;;;;17.30;8.70;;;-4.60;99.90;;;;;;4960703;28;20238;-71
2024/01/07 08:07:22;;;;;;;15.37;8.20;;;-4.50;99.90;;;;;;4982075;28;20223;-71
2024/01/07 08:09:51;;;;;;;17.40;8.87;;;-4.50;99.90;;;;;;4982393;28;20299;-70
2024/01/07 08:12:20;;;;;;;19.13;7.77;;;-4.60;99.90;;;;;;4980105;28;20828;-70
2024/01/07 08:14:49;;;;;;;15.10;8.10;;;-4.60;99.90;;;;;;4960969;28;20230;-71
2024/01/07 08:17:18;;;;;;;16.90;9.10;;;-4.60;99.90;;;;;;4958797;28;20231;-71
2024/01/07 08:19:48;;;;;;;15.43;9.20;;;-4.40;99.90;;;;;;4978419;28;20309;-71
2024/01/07 08:22:17;;;;;;;14.50;8.33;;;-4.40;99.90;;;;;;4979124;28;20338;-72
2024/01/07 08:24:45;;;;;;;15.37;7.43;;;-4.50;99.90;;;;;;4979454;28;20243;-72
2024/01/07 08:27:14;;;;;;;17.07;9.30;;;-4.60;99.90;;;;;;4980260;28;20312;-71
2024/01/07 08:29:44;;;;;;;17.03;8.70;;;-4.70;99.90;;;;;;4964212;28;20235;-70
2024/01/07 08:32:13;;;;;;;17.30;9.63;;;-4.60;99.90;;;;;;4971830;28;20255;-71
2024/01/07 08:34:41;;;;;;;16.17;9.20;;;-4.70;99.90;;;;;;4959285;28;20231;-68
2024/01/07 08:37:11;;;;;;;14.87;9.17;;;-4.50;99.90;;;;;;4958602;28;20667;-68
2024/01/07 08:39:40;;;;;;;17.40;9.70;;;-4.50;99.90;;;;;;4975820;28;20318;-68
2024/01/07 08:42:09;;;;;;;20.57;10.93;;;-4.40;99.90;;;;;;4980659;28;20221;-73
2024/01/07 08:44:39;;;;;;;18.33;9.33;;;-4.20;99.90;;;;;;4976026;28;20234;-72
2024/01/07 08:47:07;;;;;;;19.43;10.60;;;-4.10;99.90;;;;;;4977502;28;20234;-71
2024/01/07 08:49:38;;;;;;;16.67;8.67;;;-4.20;99.90;;;;;;4978349;28;20234;-72
2024/01/07 08:52:07;;;;;;;17.83;8.80;;;-4.20;99.90;;;;;;4974844;28;20239;-71
2024/01/07 08:54:37;;;;;;;15.50;9.50;;;-4.30;99.90;;;;;;4974077;28;20388;-68
2024/01/07 08:57:06;;;;;;;19.73;10.10;;;-4.20;99.90;;;;;;4978381;28;20227;-69
2024/01/07 08:59:35;;;;;;;18.03;9.97;;;-4.30;99.90;;;;;;4967330;28;20705;-68
2024/01/07 09:02:04;;;;;;;20.70;9.67;;;-4.10;99.90;;;;;;4980413;28;20250;-66
2024/01/07 09:04:33;;;;;;;21.10;10.97;;;-4.00;99.90;;;;;;4965898;28;20225;-68
2024/01/07 09:07:02;;;;;;;17.33;9.70;;;-4.00;99.90;;;;;;4960081;28;20337;-70
2024/01/07 09:09:31;;;;;;;21.17;10.67;;;-4.30;99.90;;;;;;4970707;28;20234;-69
2024/01/07 09:12:01;;;;;;;20.37;10.60;;;-4.20;99.90;;;;;;4964374;28;20231;-67
2024/01/07 09:14:29;;;;;;;16.47;9.87;;;-4.30;99.90;;;;;;4964578;28;20249;-68
2024/01/07 09:16:58;;;;;;;17.77;9.43;;;-4.50;99.90;;;;;;4978995;28;20325;-68
2024/01/07 09:19:26;;;;;;;22.87;10.23;;;-4.50;99.90;;;;;;4955009;28;20954;-69
2024/01/07 09:21:55;;;;;;;18.40;9.30;;;-4.30;99.90;;;;;;4983321;28;20273;-70
2024/01/07 09:24:25;;;;;;;22.53;11.20;;;-4.50;99.90;;;;;;4966026;28;20226;-68
2024/01/07 09:26:53;;;;;;;23.20;11.63;;;-4.40;99.90;;;;;;4982757;28;20235;-68
2024/01/07 09:29:23;;;;;;;19.80;11.30;;;-4.30;99.90;;;;;;4964064;28;20776;-68
2024/01/07 09:31:52;;;;;;;19.73;9.50;;;-4.10;99.90;;;;;;4978325;28;20555;-68
2024/01/07 09:34:21;;;;;;;20.87;10.30;;;-4.40;99.90;;;;;;4981276;28;20242;-68
2024/01/07 09:36:49;;;;;;;19.60;9.97;;;-4.50;99.90;;;;;;4979757;28;20238;-68
2024/01/07 09:39:18;;;;;;;19.07;10.37;;;-4.30;99.90;;;;;;4978603;28;20269;-69
2024/01/07 09:41:46;;;;;;;19.23;10.50;;;-4.40;99.90;;;;;;4962465;28;20219;-70
2024/01/07 09:44:17;;;;;;;19.50;11.00;;;-4.30;99.90;;;;;;4976025;28;20250;-69
2024/01/07 09:46:51;;;;;;;20.07;10.40;;;-4.20;99.90;;;;;;4981508;28;20245;-68
2024/01/07 09:49:20;;;;;;;19.47;9.77;;;-4.00;99.90;;;;;;4993591;28;20237;-69
2024/01/07 09:51:53;;;;;;;21.13;11.07;;;-4.30;99.90;;;;;;4976457;28;20226;-70
2024/01/07 09:54:24;;;;;;;22.17;10.37;;;-4.20;99.90;;;;;;4971940;28;20227;-68
2024/01/07 09:57:01;;;;;;;16.70;9.43;;;-4.30;99.90;;;;;;4983825;28;20234;-68
2024/01/07 09:59:30;;;;;;;22.93;11.43;;;-4.50;99.90;;;;;;4963795;28;20268;-70
2024/01/07 10:02:00;;;;;;;20.80;10.80;;;-4.40;99.90;;;;;;4966022;28;20229;-72
2024/01/07 10:04:30;;;;;;;21.53;10.97;;;-4.30;99.90;;;;;;4976890;28;20227;-71
2024/01/07 10:06:59;;;;;;;16.83;10.63;;;-4.30;99.90;;;;;;4983024;28;20288;-73
2024/01/07 10:09:33;;;;;;;24.17;11.83;;;-4.10;99.90;;;;;;4979564;28;20827;-72
2024/01/07 10:12:03;;;;;;;22.33;9.87;;;-4.10;99.90;;;;;;4982324;28;20222;-75
2024/01/07 10:14:31;;;;;;;18.57;9.37;;;-4.30;99.90;;;;;;4958413;28;20600;-74
2024/01/07 10:17:03;;;;;;;19.27;10.90;;;-4.50;99.90;;;;;;4982062;28;20234;-72
2024/01/07 10:19:47;;;;;;;17.13;9.47;;;-4.30;99.90;;;;;;4978467;28;20720;-71
2024/01/07 10:22:17;;;;;;;16.87;9.30;;;-4.20;99.90;;;;;;4974539;28;20247;-71
2024/01/07 10:24:45;;;;;;;16.77;9.53;;;-4.20;99.90;;;;;;4982325;28;20222;-71
2024/01/07 10:27:14;;;;;;;19.70;10.47;;;-4.40;99.90;;;;;;4964520;28;20249;-73
2024/01/07 10:29:43;;;;;;;19.17;10.97;;;-4.40;99.90;;;;;;4962676;28;20294;-72
2024/01/07 10:32:13;;;;;;;17.03;9.60;;;-4.10;99.90;;;;;;4980896;28;20235;-72
2024/01/07 10:34:45;;;;;;;21.77;11.73;;;-4.40;99.90;;;;;;4964967;28;20222;-70
2024/01/07 10:37:14;;;;;;;23.53;12.10;;;-4.60;99.90;;;;;;4972658;28;20345;-70
2024/01/07 10:39:43;;;;;;;21.30;11.43;;;-4.50;99.90;;;;;;4991518;28;20227;-68
2024/01/07 10:42:13;;;;;;;22.00;10.93;;;-4.30;99.90;;;;;;4984879;28;20278;-69
2024/01/07 10:44:42;;;;;;;21.13;10.93;;;-4.20;99.90;;;;;;4984951;28;20357;-70
2024/01/07 10:47:14;;;;;;;20.40;10.67;;;-4.30;99.90;;;;;;4983690;28;21064;-72
2024/01/07 10:49:45;;;;;;;21.13;10.47;;;-4.30;99.90;;;;;;4982801;28;20674;-71
2024/01/07 10:52:14;;;;;;;27.07;11.53;;;-4.50;99.90;;;;;;4983588;28;20297;-70
2024/01/07 10:54:48;;;;;;;24.17;12.67;;;-4.60;99.90;;;;;;4979807;28;20226;-72
2024/01/07 10:57:30;;;;;;;25.13;11.23;;;-4.20;99.90;;;;;;4973700;28;20340;-71
2024/01/07 11:00:02;;;;;;;22.13;12.23;;;-4.40;99.90;;;;;;4968594;28;20227;-70
2024/01/07 11:02:32;;;;;;;27.17;13.50;;;-4.40;99.90;;;;;;4966694;28;20246;-71
2024/01/07 11:05:10;;;;;;;22.77;11.67;;;-4.40;99.90;;;;;;4987705;28;20281;-73
2024/01/07 11:07:44;;;;;;;23.23;12.47;;;-4.40;99.90;;;;;;4991008;28;20222;-74
2024/01/07 11:10:18;;;;;;;21.07;11.50;;;-4.30;99.90;;;;;;4980309;28;20316;-72
2024/01/07 11:12:55;;;;;;;23.00;12.03;;;-4.40;99.90;;;;;;4967258;28;20226;-71
2024/01/07 11:15:54;;;;;;;18.33;10.47;;;-4.30;99.90;;;;;;4968826;28;20219;-70
2024/01/07 11:18:31;;;;;;;20.63;10.67;;;-4.30;99.90;;;;;;4979807;28;20231;-72
2024/01/07 11:21:01;;;;;;;25.53;12.40;;;-4.30;99.90;;;;;;4978920;28;20338;-72
2024/01/07 11:23:32;;;;;;;21.73;9.43;;;-4.40;99.90;;;;;;4977864;28;20607;-71
2024/01/07 11:26:01;;;;;;;25.20;11.10;;;-4.50;99.90;;;;;;4966356;28;20650;-70
2024/01/07 11:28:51;;;;;;;17.57;10.17;;;-4.40;99.90;;;;;;4978854;28;20234;-72
2024/01/07 11:31:20;;;;;;;20.57;11.40;;;-4.40;99.90;;;;;;4974450;28;20876;-72
2024/01/07 11:33:51;;;;;;;22.40;12.10;;;-4.40;99.90;;;;;;4979997;28;20547;-75
2024/01/07 11:36:21;;;;;;;21.00;10.87;;;-4.10;99.90;;;;;;4980483;28;20308;-73
2024/01/07 11:38:50;;;;;;;18.80;11.07;;;-4.10;99.90;;;;;;4977167;28;20225;-70
2024/01/07 11:41:22;;;;;;;18.17;11.77;;;-4.10;99.90;;;;;;4967264;28;20265;-70
2024/01/07 11:43:59;;;;;;;16.50;8.80;;;-3.90;99.90;;;;;;4962639;28;20259;-71
2024/01/07 11:46:34;;;;;;;20.93;10.67;;;-4.20;99.90;;;;;;4981830;28;20283;-71
2024/01/07 11:49:04;;;;;;;18.97;9.97;;;-4.30;99.90;;;;;;4981389;28;20305;-72
2024/01/07 11:51:35;;;;;;;19.83;10.20;;;-4.30;99.90;;;;;;4984841;28;20266;-73
2024/01/07 11:54:04;;;;;;;14.93;8.67;;;-4.30;99.90;;;;;;4981666;28;20297;-72
2024/01/07 11:56:32;;;;;;;19.00;9.40;;;-4.30;99.90;;;;;;4956186;28;20646;-74
2024/01/07 11:59:01;;;;;;;17.33;9.00;;;-4.30;99.90;;;;;;4963408;28;20974;-71
2024/01/07 12:01:30;;;;;;;15.40;8.33;;;-4.40;99.90;;;;;;4960784;28;20238;-70
2024/01/07 12:03:59;;;;;;;14.67;8.10;;;-4.70;99.90;;;;;;4965403;28;20658;-70
2024/01/07 12:06:30;;;;;;;15.77;9.77;;;-4.60;99.90;;;;;;4970451;28;20305;-71
2024/01/07 12:08:59;;;;;;;17.87;9.70;;;-4.50;99.90;;;;;;4980169;28;20369;-70
2024/01/07 12:11:27;;;;;;;16.93;9.57;;;-4.40;99.90;;;;;;4957203;28;20238;-71
2024/01/07 12:13:57;;;;;;;13.93;8.93;;;-4.20;99.90;;;;;;4968092;28;20279;-72
2024/01/07 12:16:27;;;;;;;15.60;9.10;;;-4.30;99.90;;;;;;4977348;28;20239;-71
2024/01/07 12:18:56;;;;;;;16.17;7.93;;;-4.40;99.90;;;;;;4974776;28;20302;-71
2024/01/07 12:21:26;;;;;;;14.53;7.93;;;-4.30;99.90;;;;;;4986160;28;20528;-70
2024/01/07 12:23:57;;;;;;;13.83;7.90;;;-4.60;99.90;;;;;;4969484;28;20281;-72
2024/01/07 12:26:28;;;;;;;14.37;7.63;;;-4.70;99.90;;;;;;4981698;28;20223;-69
2024/01/07 12:28:59;;;;;;;15.33;8.50;;;-4.60;99.90;;;;;;4977485;28;20241;-70
2024/01/07 12:31:28;;;;;;;16.83;8.70;;;-4.60;99.90;;;;;;4982136;28;20238;-70
2024/01/07 12:33:58;;;;;;;14.93;7.77;;;-4.40;99.90;;;;;;4977890;28;20229;-70
2024/01/07 12:36:27;;;;;;;15.50;8.73;;;-4.40;99.90;;;;;;4977531;28;20306;-69
2024/01/07 12:38:58;;;;;;;13.90;8.73;;;-4.40;99.90;;;;;;4965208;28;20252;-68
2024/01/07 12:41:26;;;;;;;20.13;9.70;;;-4.60;99.90;;;;;;4982795;28;20245;-69
2024/01/07 12:43:55;;;;;;;14.57;7.60;;;-4.40;99.90;;;;;;4983507;28;20222;-69
2024/01/07 12:46:24;;;;;;;15.70;9.57;;;-4.70;99.90;;;;;;4956340;28;20230;-70